createdAt,value
2023-02-04T00:00:22.287Z,4.57
2023-02-04T00:02:50.291Z,4.53
2023-02-04T00:05:18.690Z,4.61
2023-02-04T00:07:45.979Z,4.67
2023-02-04T00:10:13.544Z,4.59
2023-02-04T00:12:40.963Z,4.57
2023-02-04T00:15:08.613Z,4.60
2023-02-04T00:17:35.862Z,4.56
2023-02-04T00:20:03.916Z,4.37
2023-02-04T00:22:31.098Z,4.50
2023-02-04T00:24:58.359Z,4.60
2023-02-04T00:27:25.729Z,4.57
2023-02-04T00:29:52.864Z,4.56
2023-02-04T00:32:20.081Z,4.58
2023-02-04T00:34:47.291Z,4.58
2023-02-04T00:37:14.695Z,4.57
2023-02-04T00:39:41.813Z,4.47
2023-02-04T00:42:09.234Z,4.47
2023-02-04T00:44:37.204Z,4.44
2023-02-04T00:47:05.217Z,4.52
2023-02-04T00:49:34.904Z,4.38
2023-02-04T00:52:02.930Z,4.34
2023-02-04T00:54:30.586Z,4.28
2023-02-04T00:56:57.983Z,4.21
2023-02-04T00:59:25.616Z,4.24
2023-02-04T01:01:52.876Z,4.18
2023-02-04T01:04:20.071Z,4.16
2023-02-04T01:06:47.401Z,4.14
2023-02-04T01:09:14.725Z,4.22
2023-02-04T01:11:41.963Z,4.18
2023-02-04T01:14:09.492Z,4.27
2023-02-04T01:16:36.839Z,4.26
2023-02-04T01:19:04.108Z,4.05
2023-02-04T01:21:31.498Z,4.09
2023-02-04T01:23:58.753Z,4.21
2023-02-04T01:26:26.293Z,4.31
2023-02-04T01:28:53.550Z,4.32
2023-02-04T01:31:20.857Z,4.32
2023-02-04T01:33:48.118Z,4.29
2023-02-04T01:36:15.477Z,4.40
2023-02-04T01:38:42.660Z,4.34
2023-02-04T01:41:09.931Z,4.44
2023-02-04T01:43:37.172Z,4.40
2023-02-04T01:46:04.564Z,4.26
2023-02-04T01:48:31.995Z,4.45
2023-02-04T01:51:07.510Z,4.47
2023-02-04T01:53:36.758Z,4.52
2023-02-04T01:56:24.062Z,4.57
2023-02-04T01:58:51.282Z,4.56
2023-02-04T02:01:41.502Z,4.38
2023-02-04T02:04:18.182Z,4.32
2023-02-04T02:06:53.572Z,4.34
2023-02-04T02:09:21.404Z,4.38
2023-02-04T02:11:48.951Z,4.48
2023-02-04T02:14:16.431Z,4.39
2023-02-04T02:16:43.993Z,4.41
2023-02-04T02:19:17.985Z,4.36
2023-02-04T02:21:56.928Z,4.32
2023-02-04T02:24:35.424Z,4.29
2023-02-04T02:27:08.695Z,4.38
2023-02-04T02:29:40.921Z,4.46
2023-02-04T02:32:10.602Z,4.34
2023-02-04T02:34:39.702Z,4.33
2023-02-04T02:37:08.431Z,4.38
2023-02-04T02:39:39.781Z,4.47
2023-02-04T02:42:07.504Z,4.43
2023-02-04T02:44:34.771Z,4.43
2023-02-04T02:47:02.068Z,4.45
2023-02-04T02:49:32.672Z,4.32
2023-02-04T02:51:59.917Z,4.35
2023-02-04T02:54:31.913Z,4.28
2023-02-04T02:57:00.054Z,4.28
2023-02-04T02:59:27.785Z,4.35
2023-02-04T03:02:03.480Z,4.41
2023-02-04T03:04:37.364Z,4.32
2023-02-04T03:07:05.111Z,4.36
2023-02-04T03:09:34.753Z,4.36
2023-02-04T03:12:03.747Z,4.28
2023-02-04T03:14:31.161Z,4.22
2023-02-04T03:16:59.867Z,4.28
2023-02-04T03:19:28.650Z,4.16
2023-02-04T03:21:58.255Z,4.05
2023-02-04T03:24:26.308Z,4.13
2023-02-04T03:26:53.676Z,4.16
2023-02-04T03:29:21.077Z,4.10
2023-02-04T03:31:48.485Z,4.08
2023-02-04T03:34:15.745Z,4.06
2023-02-04T03:36:42.966Z,4.09
2023-02-04T03:39:10.227Z,4.12
2023-02-04T03:41:37.596Z,4.13
2023-02-04T03:44:04.985Z,4.19
2023-02-04T03:46:32.210Z,4.11
2023-02-04T03:48:59.467Z,4.09
2023-02-04T03:51:26.680Z,4.06
2023-02-04T03:53:53.911Z,4.06
2023-02-04T03:56:21.227Z,4.13
2023-02-04T03:58:48.430Z,4.20
2023-02-04T04:01:15.647Z,4.21
2023-02-04T04:03:43.179Z,4.16
2023-02-04T04:06:10.358Z,4.12
2023-02-04T04:08:39.151Z,4.15
2023-02-04T04:11:06.483Z,4.18
2023-02-04T04:13:33.656Z,4.19
2023-02-04T04:16:00.882Z,4.30
2023-02-04T04:18:28.119Z,4.14
2023-02-04T04:20:55.321Z,4.20
2023-02-04T04:23:22.878Z,4.17
2023-02-04T04:25:50.311Z,4.12
2023-02-04T04:28:18.101Z,4.19
2023-02-04T04:30:45.795Z,4.08
2023-02-04T04:33:13.045Z,4.11
2023-02-04T04:35:40.292Z,4.11
2023-02-04T04:38:07.809Z,4.02
2023-02-04T04:40:35.012Z,4.05
2023-02-04T04:43:02.938Z,4.07
2023-02-04T04:45:30.158Z,4.06
2023-02-04T04:47:57.585Z,4.04
2023-02-04T04:50:24.827Z,4.03
2023-02-04T04:52:52.050Z,4.09
2023-02-04T04:55:19.351Z,4.03
2023-02-04T04:57:46.621Z,4.04
2023-02-04T05:00:20.225Z,4.13
2023-02-04T05:02:48.072Z,4.22
2023-02-04T05:05:15.718Z,4.14
2023-02-04T05:07:42.911Z,4.13
2023-02-04T05:10:10.640Z,4.05
2023-02-04T05:12:38.061Z,4.16
2023-02-04T05:15:05.979Z,4.19
2023-02-04T05:17:33.282Z,4.09
2023-02-04T05:20:00.573Z,4.04
2023-02-04T05:22:27.707Z,4.03
2023-02-04T05:24:54.949Z,4.00
2023-02-04T05:27:22.327Z,4.06
2023-02-04T05:29:49.456Z,4.00
2023-02-04T05:32:16.653Z,3.97
2023-02-04T05:34:43.806Z,3.90
2023-02-04T05:37:11.039Z,3.84
2023-02-04T05:39:38.183Z,3.91
2023-02-04T05:42:05.397Z,3.80
2023-02-04T05:44:32.919Z,3.75
2023-02-04T05:47:00.194Z,3.69
2023-02-04T05:49:27.746Z,3.72
2023-02-04T05:51:54.958Z,3.83
2023-02-04T05:54:22.195Z,3.73
2023-02-04T05:56:49.460Z,3.72
2023-02-04T05:59:16.642Z,3.74
2023-02-04T06:01:44.340Z,3.70
2023-02-04T06:04:11.650Z,3.65
2023-02-04T06:06:38.857Z,3.52
2023-02-04T06:09:06.063Z,3.72
2023-02-04T06:11:33.717Z,3.76
2023-02-04T06:14:00.914Z,3.69
2023-02-04T06:16:28.191Z,3.76
2023-02-04T06:18:55.437Z,3.76
2023-02-04T06:21:22.821Z,3.76
2023-02-04T06:23:50.049Z,3.77
2023-02-04T06:26:17.350Z,3.74
2023-02-04T06:28:44.719Z,3.72
2023-02-04T06:31:11.985Z,3.70
2023-02-04T06:33:39.201Z,3.64
2023-02-04T06:36:06.754Z,3.59
2023-02-04T06:38:33.951Z,3.56
2023-02-04T06:41:01.231Z,3.58
2023-02-04T06:43:28.573Z,3.63
2023-02-04T06:45:55.847Z,3.59
2023-02-04T06:48:23.308Z,3.53
2023-02-04T06:50:50.523Z,3.56
2023-02-04T06:53:17.739Z,3.48
2023-02-04T06:55:45.013Z,3.35
2023-02-04T06:58:12.204Z,3.31
2023-02-04T07:00:39.468Z,3.13
2023-02-04T07:03:06.658Z,3.07
2023-02-04T07:05:34.655Z,2.99
2023-02-04T07:08:02.244Z,3.04
2023-02-04T07:10:30.243Z,3.06
2023-02-04T07:12:57.866Z,3.16
2023-02-04T07:15:25.137Z,3.30
2023-02-04T07:17:52.369Z,3.35
2023-02-04T07:20:19.834Z,3.43
2023-02-04T07:22:46.970Z,3.51
2023-02-04T07:25:14.429Z,3.51
2023-02-04T07:27:41.632Z,3.58
2023-02-04T07:30:10.729Z,3.41
2023-02-04T07:32:38.000Z,3.47
2023-02-04T07:35:05.761Z,3.58
2023-02-04T07:37:33.086Z,3.58
2023-02-04T07:40:00.306Z,3.65
2023-02-04T07:42:27.540Z,3.68
2023-02-04T07:44:54.996Z,3.72
2023-02-04T07:47:22.237Z,3.81
2023-02-04T07:49:49.599Z,4.01
2023-02-04T07:52:17.122Z,4.19
2023-02-04T07:54:44.316Z,4.16
2023-02-04T07:57:11.568Z,4.36
2023-02-04T07:59:38.851Z,4.44
2023-02-04T08:02:06.624Z,4.48
2023-02-04T08:04:33.891Z,4.52
2023-02-04T08:07:01.450Z,4.61
2023-02-04T08:09:28.742Z,4.58
2023-02-04T08:11:57.106Z,4.75
2023-02-04T08:14:25.191Z,4.78
2023-02-04T08:16:52.857Z,4.88
2023-02-04T08:19:20.756Z,4.88
2023-02-04T08:21:50.147Z,4.79
2023-02-04T08:24:17.717Z,4.84
2023-02-04T08:26:45.284Z,4.86
2023-02-04T08:29:12.617Z,4.99
2023-02-04T08:31:40.792Z,5.12
2023-02-04T08:34:08.192Z,5.14
2023-02-04T08:36:35.369Z,5.13
2023-02-04T08:39:02.815Z,5.06
2023-02-04T08:41:30.078Z,4.98
2023-02-04T08:43:57.700Z,4.98
2023-02-04T08:46:25.073Z,4.98
2023-02-04T08:48:52.318Z,4.96
2023-02-04T08:51:19.579Z,5.05
2023-02-04T08:53:46.796Z,5.11
2023-02-04T08:56:14.099Z,5.08
2023-02-04T08:58:41.298Z,5.04
2023-02-04T09:01:08.697Z,4.97
2023-02-04T09:03:35.997Z,4.88
2023-02-04T09:06:03.357Z,4.97
2023-02-04T09:08:30.561Z,5.04
2023-02-04T09:10:57.833Z,5.13
2023-02-04T09:13:25.173Z,5.14
2023-02-04T09:15:54.014Z,5.22
2023-02-04T09:18:21.551Z,5.13
2023-02-04T09:20:50.110Z,5.11
2023-02-04T09:23:17.983Z,5.04
2023-02-04T09:25:47.634Z,5.23
2023-02-04T09:28:17.147Z,5.17
2023-02-04T09:30:46.703Z,5.20
2023-02-04T09:33:16.274Z,5.35
2023-02-04T09:35:43.547Z,5.44
2023-02-04T09:38:10.926Z,5.48
2023-02-04T09:40:47.656Z,5.50
2023-02-04T09:43:24.204Z,5.51
2023-02-04T09:45:52.960Z,5.52
2023-02-04T09:48:23.610Z,5.54
2023-02-04T09:51:06.539Z,5.62
2023-02-04T09:53:37.390Z,5.68
2023-02-04T09:56:05.219Z,5.74
2023-02-04T09:58:34.864Z,5.77
2023-02-04T10:01:16.804Z,5.91
2023-02-04T10:03:46.880Z,5.74
2023-02-04T10:06:20.665Z,5.84
2023-02-04T10:08:51.937Z,5.84
2023-02-04T10:11:23.593Z,6.00
2023-02-04T10:13:54.495Z,5.86
2023-02-04T10:16:35.222Z,5.93
2023-02-04T10:19:16.107Z,5.78
2023-02-04T10:21:45.546Z,5.85
2023-02-04T10:24:21.601Z,5.95
2023-02-04T10:26:49.296Z,5.88
2023-02-04T10:29:24.267Z,5.91
2023-02-04T10:31:52.926Z,5.83
2023-02-04T10:34:32.797Z,5.98
2023-02-04T10:37:00.467Z,5.94
2023-02-04T10:39:30.646Z,5.88
2023-02-04T10:42:00.817Z,5.97
2023-02-04T10:44:35.453Z,5.87
2023-02-04T10:47:07.445Z,5.85
2023-02-04T10:49:34.707Z,5.94
2023-02-04T10:52:05.119Z,5.88
2023-02-04T10:54:39.181Z,5.89
2023-02-04T10:57:26.381Z,5.92
2023-02-04T11:00:04.480Z,5.92
2023-02-04T11:02:44.525Z,5.96
2023-02-04T11:05:24.141Z,6.13
2023-02-04T11:07:51.864Z,6.20
2023-02-04T11:10:24.102Z,6.28
2023-02-04T11:12:54.537Z,6.14
2023-02-04T11:15:41.965Z,6.14
2023-02-04T11:18:28.125Z,6.27
2023-02-04T11:20:59.419Z,6.19
2023-02-04T11:23:26.892Z,6.15
2023-02-04T11:26:16.367Z,6.18
2023-02-04T11:28:59.983Z,6.40
2023-02-04T11:31:50.486Z,6.45
2023-02-04T11:34:17.748Z,6.47
2023-02-04T11:36:57.152Z,6.50
2023-02-04T11:39:48.507Z,6.45
2023-02-04T11:42:30.561Z,6.47
2023-02-04T11:45:14.143Z,6.55
2023-02-04T11:47:42.951Z,6.43
2023-02-04T11:50:32.742Z,6.51
2023-02-04T11:53:02.072Z,6.63
2023-02-04T11:55:32.638Z,6.73
2023-02-04T11:58:00.217Z,6.94
2023-02-04T12:00:32.315Z,7.66
2023-02-04T12:03:03.063Z,8.63
2023-02-04T12:05:45.407Z,9.59
2023-02-04T12:08:36.310Z,10.51
2023-02-04T12:11:25.511Z,11.32
2023-02-04T12:13:55.425Z,12.19
2023-02-04T12:16:23.871Z,13.21
2023-02-04T12:18:51.681Z,13.43
2023-02-04T12:21:19.571Z,13.54
2023-02-04T12:23:46.746Z,14.16
2023-02-04T12:26:14.580Z,14.65
2023-02-04T12:28:41.774Z,15.07
2023-02-04T12:31:09.628Z,15.52
2023-02-04T12:33:37.029Z,15.66
2023-02-04T12:36:04.799Z,15.65
2023-02-04T12:38:32.154Z,15.80
2023-02-04T12:40:59.501Z,15.57
2023-02-04T12:43:28.429Z,15.66
2023-02-04T12:45:56.222Z,15.47
2023-02-04T12:48:23.774Z,14.91
2023-02-04T12:50:50.977Z,14.32
2023-02-04T12:53:18.193Z,13.63
2023-02-04T12:55:45.400Z,13.37
2023-02-04T12:58:12.661Z,13.01
2023-02-04T13:00:41.080Z,13.00
2023-02-04T13:03:08.528Z,13.22
2023-02-04T13:05:35.832Z,13.05
2023-02-04T13:08:03.079Z,12.88
2023-02-04T13:10:30.620Z,12.01
2023-02-04T13:12:57.832Z,11.22
2023-02-04T13:15:25.007Z,10.52
2023-02-04T13:17:52.550Z,9.99
2023-02-04T13:20:19.921Z,9.36
2023-02-04T13:22:47.198Z,8.97
2023-02-04T13:25:14.649Z,8.85
2023-02-04T13:27:42.160Z,8.65
2023-02-04T13:30:11.969Z,8.41
2023-02-04T13:32:39.181Z,7.90
2023-02-04T13:35:07.082Z,7.61
2023-02-04T13:37:34.362Z,7.38
2023-02-04T13:40:01.665Z,7.30
2023-02-04T13:42:28.962Z,7.12
2023-02-04T13:44:56.131Z,7.11
2023-02-04T13:47:23.265Z,7.01
2023-02-04T13:49:50.502Z,6.91
2023-02-04T13:54:47.905Z,6.85
2023-02-04T13:57:15.116Z,6.80
2023-02-04T13:59:42.400Z,6.81
2023-02-04T14:02:10.208Z,6.73
2023-02-04T14:04:37.519Z,6.66
2023-02-04T14:07:04.807Z,6.71
2023-02-04T14:09:32.133Z,6.66
2023-02-04T14:11:59.491Z,6.57
2023-02-04T14:14:26.696Z,6.54
2023-02-04T14:16:55.170Z,6.48
2023-02-04T14:19:22.499Z,6.50
2023-02-04T14:21:50.228Z,6.61
2023-02-04T14:24:17.377Z,6.71
2023-02-04T14:26:44.705Z,6.60
2023-02-04T14:29:12.090Z,6.61
2023-02-04T14:31:39.377Z,6.62
2023-02-04T14:34:06.643Z,6.62
2023-02-04T14:36:33.821Z,6.55
2023-02-04T14:39:01.024Z,6.29
2023-02-04T14:41:28.500Z,6.34
2023-02-04T14:43:55.833Z,6.17
2023-02-04T14:46:23.307Z,6.28
2023-02-04T14:48:50.565Z,6.27
2023-02-04T14:51:18.537Z,6.28
2023-02-04T14:53:48.268Z,6.25
2023-02-04T14:56:17.389Z,6.20
2023-02-04T14:58:44.999Z,6.21
2023-02-04T15:01:12.343Z,6.15
2023-02-04T15:03:39.553Z,6.15
2023-02-04T15:06:07.102Z,6.23
2023-02-04T15:08:34.279Z,6.26
2023-02-04T15:11:02.739Z,6.28
2023-02-04T15:13:30.192Z,6.15
2023-02-04T15:15:57.485Z,6.10
2023-02-04T15:18:24.965Z,6.16
2023-02-04T15:20:52.353Z,6.11
2023-02-04T15:23:20.103Z,6.07
2023-02-04T15:25:47.618Z,6.06
2023-02-04T15:28:15.171Z,6.01
2023-02-04T15:30:42.605Z,6.03
2023-02-04T15:33:09.892Z,6.02
2023-02-04T15:35:37.218Z,5.95
2023-02-04T15:38:04.434Z,5.88
2023-02-04T15:40:32.208Z,5.92
2023-02-04T15:42:59.519Z,5.95
2023-02-04T15:45:26.763Z,5.85
2023-02-04T15:47:56.703Z,5.70
2023-02-04T15:50:23.952Z,5.81
2023-02-04T15:52:51.393Z,5.84
2023-02-04T15:55:19.297Z,5.81
2023-02-04T15:57:46.479Z,5.66
2023-02-04T16:00:14.707Z,5.62
2023-02-04T16:02:42.035Z,5.65
2023-02-04T16:05:09.194Z,5.64
2023-02-04T16:07:37.881Z,5.51
2023-02-04T16:10:05.889Z,5.49
2023-02-04T16:12:33.091Z,5.55
2023-02-04T16:15:00.311Z,5.55
2023-02-04T16:17:27.536Z,5.52
2023-02-04T16:19:54.724Z,5.57
2023-02-04T16:22:22.189Z,5.51
2023-02-04T16:24:49.707Z,5.49
2023-02-04T16:27:16.980Z,5.46
2023-02-04T16:29:44.368Z,5.50
2023-02-04T16:32:11.672Z,5.47
2023-02-04T16:34:38.880Z,5.50
2023-02-04T16:37:06.138Z,5.40
2023-02-04T16:39:33.592Z,5.43
2023-02-04T16:42:00.848Z,5.39
2023-02-04T16:44:28.072Z,5.41
2023-02-04T16:46:55.279Z,5.39
2023-02-04T16:49:22.481Z,5.29
2023-02-04T16:51:49.699Z,5.10
2023-02-04T16:54:16.995Z,5.10
2023-02-04T16:56:44.373Z,5.13
2023-02-04T16:59:11.844Z,5.12
2023-02-04T17:01:39.057Z,5.07
2023-02-04T17:04:06.956Z,5.07
2023-02-04T17:06:34.529Z,5.12
2023-02-04T17:09:01.862Z,5.15
2023-02-04T17:11:29.202Z,5.06
2023-02-04T17:14:17.198Z,4.96
2023-02-04T17:16:46.500Z,4.92
2023-02-04T17:19:16.121Z,4.82
2023-02-04T17:21:44.306Z,4.80
2023-02-04T17:24:12.170Z,4.75
2023-02-04T17:26:40.646Z,4.68
2023-02-04T17:29:12.137Z,4.51
2023-02-04T17:31:40.386Z,4.46
2023-02-04T17:34:07.696Z,4.45
2023-02-04T17:36:35.847Z,4.41
2023-02-04T17:39:03.662Z,4.37
2023-02-04T17:41:31.100Z,4.33
2023-02-04T17:43:58.541Z,4.28
2023-02-04T17:46:25.817Z,4.20
2023-02-04T17:48:53.072Z,4.13
2023-02-04T17:51:20.357Z,4.08
2023-02-04T17:53:48.217Z,4.05
2023-02-04T17:56:15.456Z,4.02
2023-02-04T17:58:43.450Z,3.97
2023-02-04T18:01:18.176Z,3.94
2023-02-04T18:03:46.417Z,3.88
2023-02-04T18:06:27.196Z,3.80
2023-02-04T18:08:55.862Z,3.79
2023-02-04T18:11:27.852Z,3.85
2023-02-04T18:14:12.235Z,3.83
2023-02-04T18:16:40.621Z,3.74
2023-02-04T18:19:20.212Z,3.73
2023-02-04T18:21:49.356Z,3.75
2023-02-04T18:24:34.022Z,3.78
2023-02-04T18:27:14.420Z,3.77
2023-02-04T18:29:46.673Z,3.82
2023-02-04T18:32:23.675Z,3.77
2023-02-04T18:34:54.535Z,3.70
2023-02-04T18:37:36.486Z,3.63
2023-02-04T18:40:09.549Z,3.68
2023-02-04T18:42:40.574Z,3.68
2023-02-04T18:45:24.633Z,3.65
2023-02-04T18:48:01.689Z,3.69
2023-02-04T18:50:33.618Z,3.67
2023-02-04T18:53:16.307Z,3.72
2023-02-04T18:55:50.689Z,3.69
2023-02-04T18:58:23.895Z,3.66
2023-02-04T19:00:58.818Z,3.70
2023-02-04T19:03:28.858Z,3.74
2023-02-04T19:06:01.095Z,3.74
2023-02-04T19:08:44.768Z,3.63
2023-02-04T19:11:43.377Z,3.60
2023-02-04T19:14:38.604Z,3.40
2023-02-04T19:17:14.687Z,3.40
2023-02-04T19:19:58.609Z,3.37
2023-02-04T19:22:46.080Z,3.34
2023-02-04T19:25:29.048Z,3.29
2023-02-04T19:28:19.395Z,3.22
2023-02-04T19:30:50.931Z,3.16
2023-02-04T19:33:28.016Z,2.94
2023-02-04T19:35:55.315Z,3.00
2023-02-04T19:38:40.343Z,3.05
2023-02-04T19:41:31.840Z,3.05
2023-02-04T19:44:15.055Z,3.01
2023-02-04T19:46:43.688Z,2.94
2023-02-04T19:49:36.864Z,2.85
2023-02-04T19:52:32.489Z,2.81
2023-02-04T19:55:18.495Z,2.77
2023-02-04T19:57:58.428Z,2.71
2023-02-04T20:00:34.869Z,2.62
2023-02-04T20:03:35.811Z,2.50
2023-02-04T20:06:33.522Z,2.39
2023-02-04T20:09:30.513Z,2.33
2023-02-04T20:12:15.138Z,2.34
2023-02-04T20:14:47.671Z,2.28
2023-02-04T20:17:27.653Z,2.23
2023-02-04T20:19:57.682Z,2.20
2023-02-04T20:22:46.042Z,2.13
2023-02-04T20:25:19.987Z,2.06
2023-02-04T20:27:55.366Z,2.03
2023-02-04T20:30:31.086Z,1.97
2023-02-04T20:33:22.576Z,1.92
2023-02-04T20:35:52.790Z,1.85
2023-02-04T20:38:20.595Z,1.84
2023-02-04T20:40:47.989Z,1.81
2023-02-04T20:43:21.578Z,1.78
2023-02-04T20:46:00.181Z,1.70
2023-02-04T20:48:27.844Z,1.63
2023-02-04T20:50:57.733Z,1.63
2023-02-04T20:53:43.100Z,1.61
2023-02-04T20:56:35.256Z,1.54
2023-02-04T20:59:11.653Z,1.49
2023-02-04T21:01:41.715Z,1.48
2023-02-04T21:04:30.919Z,1.41
2023-02-04T21:07:20.695Z,1.30
2023-02-04T21:09:49.233Z,1.30
2023-02-04T21:12:16.369Z,1.24
2023-02-04T21:14:43.591Z,1.19
2023-02-04T21:17:10.795Z,1.10
2023-02-04T21:19:38.195Z,1.11
2023-02-04T21:22:05.608Z,1.10
2023-02-04T21:24:33.103Z,1.08
2023-02-04T21:27:00.425Z,1.08
2023-02-04T21:29:27.791Z,1.09
2023-02-04T21:31:55.068Z,1.11
2023-02-04T21:34:22.337Z,1.10
2023-02-04T21:36:49.650Z,1.05
2023-02-04T21:39:17.218Z,0.97
2023-02-04T21:41:44.401Z,0.90
2023-02-04T21:44:11.592Z,0.83
2023-02-04T21:46:38.807Z,0.61
2023-02-04T21:49:07.428Z,0.60
2023-02-04T21:51:37.246Z,0.60
2023-02-04T21:54:04.808Z,0.62
2023-02-04T21:56:32.036Z,0.65
2023-02-04T21:58:59.256Z,0.56
2023-02-04T22:01:26.445Z,0.61
2023-02-04T22:03:53.759Z,0.58
2023-02-04T22:06:21.035Z,0.54
2023-02-04T22:08:48.462Z,0.55
2023-02-04T22:11:16.020Z,0.54
2023-02-04T22:13:45.349Z,0.57
2023-02-04T22:16:12.998Z,0.52
2023-02-04T22:18:40.262Z,0.55
2023-02-04T22:21:07.633Z,0.54
2023-02-04T22:23:38.878Z,0.55
2023-02-04T22:26:06.256Z,0.54
2023-02-04T22:28:33.424Z,0.50
2023-02-04T22:31:01.009Z,0.52
2023-02-04T22:33:28.249Z,0.53
2023-02-04T22:35:55.614Z,0.49
2023-02-04T22:38:22.756Z,0.49
2023-02-04T22:40:49.989Z,0.47
2023-02-04T22:43:17.311Z,0.46
2023-02-04T22:45:44.592Z,0.45
2023-02-04T22:48:11.781Z,0.39
2023-02-04T22:50:38.992Z,0.29
2023-02-04T22:53:06.377Z,0.27
2023-02-04T22:55:33.856Z,0.20
2023-02-04T22:58:01.721Z,0.07
2023-02-04T23:00:29.376Z,0.03
2023-02-04T23:02:56.739Z,0.02
2023-02-04T23:05:24.250Z,-0.01
2023-02-04T23:07:51.951Z,-0.01
2023-02-04T23:10:19.440Z,-0.10
2023-02-04T23:12:46.737Z,-0.19
2023-02-04T23:15:14.332Z,-0.24
2023-02-04T23:17:41.716Z,-0.31
2023-02-04T23:20:09.775Z,-0.32
2023-02-04T23:22:37.437Z,-0.35
2023-02-04T23:25:06.499Z,-0.13
2023-02-04T23:27:34.256Z,0.13
2023-02-04T23:30:01.602Z,0.39
2023-02-04T23:32:28.784Z,0.44
2023-02-04T23:34:56.044Z,0.56
2023-02-04T23:37:24.253Z,0.75
2023-02-04T23:39:51.488Z,0.77
2023-02-04T23:42:18.925Z,0.82
2023-02-04T23:44:46.269Z,0.94
2023-02-04T23:47:13.548Z,1.02
2023-02-04T23:49:40.889Z,1.08
2023-02-04T23:52:08.344Z,1.11
2023-02-04T23:54:36.019Z,1.15
2023-02-04T23:57:03.163Z,1.17
2023-02-04T23:59:30.387Z,1.21
